createdAt,value
2022-09-09T03:33:35.647Z,100.00
2022-09-09T03:41:42.935Z,100.00
2022-09-09T03:59:31.364Z,100.00
2022-09-09T04:02:20.512Z,100.00
2022-09-09T04:06:37.439Z,100.00
2022-09-09T04:12:35.957Z,100.00
2022-09-09T04:15:14.288Z,100.00
2022-09-09T04:17:45.345Z,100.00
2022-09-09T04:20:13.321Z,100.00
2022-09-09T04:22:43.385Z,100.00
2022-09-09T04:25:10.558Z,100.00
2022-09-09T04:27:37.584Z,100.00
2022-09-09T04:30:05.031Z,100.00
2022-09-09T04:32:34.742Z,100.00
2022-09-09T04:35:13.435Z,100.00
2022-09-09T04:37:41.998Z,100.00
2022-09-09T04:40:11.016Z,100.00
2022-09-09T04:42:42.110Z,100.00
2022-09-09T04:45:35.928Z,100.00
2022-09-09T04:48:09.291Z,100.00
2022-09-09T04:50:41.280Z,100.00
2022-09-09T04:53:26.309Z,100.00
2022-09-09T04:56:44.186Z,100.00
2022-09-09T04:59:24.709Z,100.00
2022-09-09T05:02:20.471Z,100.00
2022-09-09T05:04:51.150Z,100.00
2022-09-09T05:09:08.632Z,100.00
2022-09-09T05:22:09.325Z,100.00
2022-09-09T05:39:01.667Z,100.00
2022-09-09T06:02:14.268Z,100.00
2022-09-09T06:10:11.578Z,100.00
2022-09-09T06:17:57.112Z,100.00
2022-09-09T06:21:04.723Z,100.00
2022-09-09T06:27:04.618Z,100.00
2022-09-09T06:29:35.796Z,100.00
2022-09-09T06:32:07.776Z,100.00
2022-09-09T06:34:36.070Z,100.00
2022-09-09T06:37:03.669Z,100.00
2022-09-09T06:39:37.103Z,100.00
2022-09-09T06:42:05.230Z,100.00
2022-09-09T06:44:47.104Z,100.00
2022-09-09T06:47:22.619Z,100.00
2022-09-09T06:49:49.876Z,100.00
2022-09-09T06:52:18.464Z,100.00
2022-09-09T06:54:46.464Z,100.00
2022-09-09T06:57:34.092Z,100.00
2022-09-09T07:00:02.947Z,100.00
2022-09-09T07:02:31.148Z,100.00
2022-09-09T07:04:59.831Z,100.00
2022-09-09T07:07:31.957Z,100.00
2022-09-09T07:09:59.021Z,100.00
2022-09-09T07:12:26.107Z,100.00
2022-09-09T07:14:58.674Z,100.00
2022-09-09T07:17:25.829Z,100.00
2022-09-09T07:19:53.422Z,100.00
2022-09-09T07:22:21.851Z,100.00
2022-09-09T07:24:52.419Z,100.00
2022-09-09T07:27:22.360Z,100.00
2022-09-09T07:29:50.994Z,100.00
2022-09-09T07:32:18.924Z,100.00
2022-09-09T07:34:46.990Z,100.00
2022-09-09T07:37:18.181Z,100.00
2022-09-09T07:39:46.069Z,100.00
2022-09-09T07:42:14.647Z,100.00
2022-09-09T07:44:41.999Z,100.00
2022-09-09T07:47:12.625Z,100.00
2022-09-09T07:49:44.533Z,100.00
2022-09-09T07:52:14.871Z,100.00
2022-09-09T07:54:49.827Z,100.00
2022-09-09T07:57:19.527Z,100.00
2022-09-09T07:59:47.758Z,100.00
2022-09-09T08:02:15.295Z,100.00
2022-09-09T08:04:42.729Z,100.00
2022-09-09T08:07:11.769Z,100.00
2022-09-09T08:09:59.140Z,100.00
2022-09-09T08:12:42.248Z,100.00
2022-09-09T08:15:19.559Z,100.00
2022-09-09T08:17:46.719Z,100.00
2022-09-09T08:20:14.288Z,100.00
2022-09-09T08:22:43.187Z,100.00
2022-09-09T08:25:11.452Z,100.00
2022-09-09T08:27:39.245Z,100.00
2022-09-09T08:30:07.733Z,100.00
2022-09-09T08:32:36.323Z,100.00
2022-09-09T08:35:08.055Z,100.00
2022-09-09T08:37:35.894Z,100.00
2022-09-09T08:40:03.892Z,100.00
2022-09-09T08:42:39.229Z,100.00
2022-09-09T08:45:15.103Z,100.00
2022-09-09T08:47:55.961Z,100.00
2022-09-09T08:50:41.940Z,100.00
2022-09-09T08:53:31.531Z,100.00
2022-09-09T08:56:02.882Z,100.00
2022-09-09T08:59:02.028Z,100.00
2022-09-09T09:01:45.161Z,100.00
2022-09-09T09:04:52.624Z,100.00
2022-09-09T09:07:34.802Z,100.00
2022-09-09T09:10:42.816Z,100.00
2022-09-09T09:13:28.729Z,100.00
2022-09-09T09:16:11.978Z,100.00
2022-09-09T09:18:39.539Z,100.00
2022-09-09T09:21:24.759Z,100.00
2022-09-09T09:24:01.534Z,100.00
2022-09-09T09:26:36.391Z,100.00
2022-09-09T09:29:16.102Z,100.00
2022-09-09T09:31:55.897Z,100.00
2022-09-09T09:34:25.496Z,100.00
2022-09-09T09:37:06.336Z,100.00
2022-09-09T09:42:30.017Z,100.00
2022-09-09T09:45:09.460Z,100.00
2022-09-09T09:47:36.958Z,100.00
2022-09-09T09:50:20.644Z,100.00
2022-09-09T09:52:58.546Z,100.00
2022-09-09T09:55:32.280Z,100.00
2022-09-09T09:58:08.091Z,100.00
2022-09-09T10:00:50.284Z,100.00
2022-09-09T10:03:42.188Z,100.00
2022-09-09T10:06:09.535Z,100.00
2022-09-09T10:08:47.695Z,100.00
2022-09-09T10:11:30.346Z,100.00
2022-09-09T10:14:36.528Z,100.00
2022-09-09T10:17:28.465Z,100.00
2022-09-09T10:20:10.931Z,100.00
2022-09-09T10:22:45.219Z,100.00
2022-09-09T10:25:27.801Z,100.00
2022-09-09T10:28:16.645Z,100.00
2022-09-09T10:31:02.859Z,100.00
2022-09-09T10:33:44.708Z,100.00
2022-09-09T10:36:24.630Z,100.00
2022-09-09T10:39:06.584Z,100.00
2022-09-09T10:41:57.103Z,100.00
2022-09-09T10:44:45.482Z,100.00
2022-09-09T10:47:41.868Z,100.00
2022-09-09T10:50:57.101Z,100.00
2022-09-09T10:53:30.174Z,100.00
2022-09-09T10:56:19.987Z,100.00
2022-09-09T10:59:28.393Z,100.00
2022-09-09T11:02:28.803Z,100.00
2022-09-09T11:05:10.307Z,100.00
2022-09-09T11:11:41.199Z,100.00
2022-09-09T11:14:29.144Z,100.00
2022-09-09T11:17:10.838Z,100.00
2022-09-09T11:19:41.743Z,100.00
2022-09-09T11:22:34.086Z,100.00
2022-09-09T11:25:09.653Z,100.00
2022-09-09T11:28:20.798Z,100.00
2022-09-09T11:31:05.796Z,100.00
2022-09-09T11:33:58.914Z,100.00
2022-09-09T11:36:44.119Z,100.00
2022-09-09T11:39:12.664Z,100.00
2022-09-09T11:41:40.082Z,100.00
2022-09-09T11:44:18.751Z,100.00
2022-09-09T11:46:50.899Z,100.00
2022-09-09T11:49:42.813Z,100.00
2022-09-09T11:52:23.194Z,100.00
2022-09-09T11:54:51.592Z,100.00
2022-09-09T11:57:35.625Z,100.00
2022-09-09T12:00:04.691Z,100.00
2022-09-09T12:02:52.979Z,100.00
2022-09-09T12:05:23.230Z,100.00
2022-09-09T12:07:58.151Z,100.00
2022-09-09T12:10:31.002Z,100.00
2022-09-09T12:13:16.407Z,100.00
2022-09-09T12:16:04.059Z,100.00
2022-09-09T12:18:35.970Z,100.00
2022-09-09T12:21:15.607Z,100.00
2022-09-09T12:23:53.328Z,100.00
2022-09-09T12:26:49.230Z,100.00
2022-09-09T12:29:52.193Z,100.00
2022-09-09T12:32:26.176Z,100.00
2022-09-09T12:34:59.813Z,100.00
2022-09-09T12:38:03.575Z,100.00
2022-09-09T12:40:36.578Z,100.00
2022-09-09T12:43:23.113Z,100.00
2022-09-09T12:45:57.860Z,100.00
2022-09-09T12:48:36.105Z,100.00
2022-09-09T12:51:07.651Z,100.00
2022-09-09T12:53:38.038Z,100.00
2022-09-09T12:56:12.359Z,100.00
2022-09-09T12:58:41.655Z,100.00
2022-09-09T13:01:31.050Z,100.00
2022-09-09T13:03:59.470Z,100.00
2022-09-09T13:06:32.099Z,100.00
2022-09-09T13:09:02.640Z,100.00
2022-09-09T13:11:43.384Z,100.00
2022-09-09T13:14:27.614Z,100.00
2022-09-09T13:17:04.410Z,100.00
2022-09-09T13:19:36.733Z,100.00
2022-09-09T13:22:15.616Z,100.00
2022-09-09T13:24:43.778Z,100.00
2022-09-09T13:27:32.362Z,100.00
2022-09-09T13:30:00.106Z,100.00
2022-09-09T13:32:32.234Z,100.00
2022-09-09T13:35:02.685Z,100.00
2022-09-09T13:37:35.825Z,100.00
2022-09-09T13:40:05.211Z,100.00
2022-09-09T13:42:36.455Z,100.00
2022-09-09T13:45:06.002Z,100.00
2022-09-09T13:47:35.566Z,100.00
2022-09-09T13:50:26.110Z,100.00
2022-09-09T13:52:55.039Z,100.00
2022-09-09T13:55:24.258Z,100.00
2022-09-09T13:58:04.630Z,100.00
2022-09-09T14:00:34.219Z,100.00
2022-09-09T14:03:03.349Z,100.00
2022-09-09T14:05:34.278Z,100.00
2022-09-09T14:08:04.004Z,100.00
2022-09-09T14:10:31.074Z,100.00
2022-09-09T14:12:58.378Z,100.00
2022-09-09T14:15:25.566Z,100.00
2022-09-09T14:17:53.392Z,100.00
2022-09-09T14:20:21.225Z,100.00
2022-09-09T14:22:48.950Z,100.00
2022-09-09T14:25:16.120Z,100.00
2022-09-09T14:27:43.577Z,100.00
2022-09-09T14:30:11.099Z,100.00
2022-09-09T14:32:38.052Z,100.00
2022-09-09T14:35:05.578Z,100.00
2022-09-09T14:37:32.563Z,100.00
2022-09-09T14:39:59.874Z,100.00
2022-09-09T14:42:27.907Z,100.00
2022-09-09T14:44:55.019Z,100.00
2022-09-09T14:47:22.340Z,100.00
2022-09-09T14:49:50.923Z,100.00
2022-09-09T14:52:18.253Z,100.00
2022-09-09T14:54:45.299Z,100.00
2022-09-09T14:57:12.331Z,100.00
2022-09-09T14:59:39.352Z,100.00
2022-09-09T15:02:06.679Z,100.00
2022-09-09T15:04:33.803Z,100.00
2022-09-09T15:07:00.750Z,100.00
2022-09-09T15:09:28.105Z,100.00
2022-09-09T15:11:55.095Z,100.00
2022-09-09T15:14:22.565Z,100.00
2022-09-09T15:16:52.582Z,100.00
2022-09-09T15:19:19.793Z,100.00
2022-09-09T15:21:47.637Z,100.00
2022-09-09T15:24:14.950Z,100.00
2022-09-09T15:26:41.960Z,100.00
2022-09-09T15:29:09.571Z,100.00
2022-09-09T15:31:37.582Z,100.00
2022-09-09T15:34:14.250Z,100.00
2022-09-09T15:36:49.337Z,100.00
2022-09-09T15:39:18.619Z,100.00
2022-09-09T15:41:50.524Z,100.00
2022-09-09T15:44:17.895Z,100.00
2022-09-09T15:46:50.221Z,100.00
2022-09-09T15:49:19.704Z,100.00
2022-09-09T15:51:48.934Z,100.00
2022-09-09T15:54:19.571Z,100.00
2022-09-09T15:56:56.772Z,100.00
2022-09-09T15:59:29.531Z,100.00
2022-09-09T16:01:57.664Z,100.00
2022-09-09T16:04:25.650Z,100.00
2022-09-09T16:07:02.726Z,100.00
2022-09-09T16:09:31.099Z,100.00
2022-09-09T16:12:07.125Z,100.00
2022-09-09T16:14:36.840Z,100.00
2022-09-09T16:17:05.097Z,100.00
2022-09-09T16:19:33.010Z,100.00
2022-09-09T16:22:00.302Z,100.00
2022-09-09T16:24:28.337Z,100.00
2022-09-09T16:26:56.906Z,100.00
2022-09-09T16:29:35.604Z,100.00
2022-09-09T16:32:15.622Z,100.00
2022-09-09T16:34:47.662Z,100.00
2022-09-09T16:37:17.289Z,100.00
2022-09-09T16:39:46.856Z,100.00
2022-09-09T16:42:19.659Z,100.00
2022-09-09T16:44:52.615Z,100.00
2022-09-09T16:47:29.379Z,100.00
2022-09-09T16:50:04.265Z,100.00
2022-09-09T16:52:37.727Z,100.00
2022-09-09T16:55:08.580Z,100.00
2022-09-09T16:57:38.792Z,100.00
2022-09-09T17:00:18.468Z,100.00
2022-09-09T17:02:48.709Z,100.00
2022-09-09T17:05:42.686Z,100.00
2022-09-09T17:08:12.810Z,100.00
2022-09-09T17:10:55.121Z,100.00
2022-09-09T17:13:26.078Z,100.00
2022-09-09T17:16:02.894Z,100.00
2022-09-09T17:18:36.519Z,100.00
2022-09-09T17:21:09.079Z,100.00
2022-09-09T17:23:41.535Z,100.00
2022-09-09T17:26:12.013Z,100.00
2022-09-09T17:28:49.316Z,100.00
2022-09-09T17:31:23.821Z,100.00
2022-09-09T17:33:55.963Z,100.00
2022-09-09T17:36:44.008Z,100.00
2022-09-09T17:39:17.332Z,100.00
2022-09-09T17:41:56.348Z,100.00
2022-09-09T17:44:44.505Z,100.00
2022-09-09T17:47:46.893Z,100.00
2022-09-09T17:50:56.011Z,100.00
2022-09-09T17:53:25.720Z,100.00
2022-09-09T17:55:53.438Z,100.00
2022-09-09T17:58:25.355Z,100.00
2022-09-09T18:01:06.549Z,100.00
2022-09-09T18:03:38.192Z,100.00
2022-09-09T18:06:11.017Z,100.00
2022-09-09T18:08:51.042Z,100.00
2022-09-09T18:11:29.400Z,100.00
2022-09-09T18:14:27.438Z,100.00
2022-09-09T18:17:08.677Z,100.00
2022-09-09T18:20:11.679Z,100.00
2022-09-09T18:22:42.008Z,100.00
2022-09-09T18:25:12.861Z,100.00
2022-09-09T18:27:43.358Z,100.00
2022-09-09T18:30:18.662Z,100.00
2022-09-09T18:33:04.289Z,100.00
2022-09-09T18:35:37.947Z,100.00
2022-09-09T18:38:07.701Z,100.00
2022-09-09T18:40:42.273Z,100.00
2022-09-09T18:43:11.827Z,100.00
2022-09-09T18:45:44.626Z,100.00
2022-09-09T18:48:12.896Z,100.00
2022-09-09T18:50:42.562Z,100.00
2022-09-09T18:53:11.063Z,100.00
2022-09-09T18:55:38.818Z,100.00
2022-09-09T18:58:08.690Z,100.00
2022-09-09T19:00:48.973Z,100.00
2022-09-09T19:03:19.695Z,100.00
2022-09-09T19:09:57.965Z,100.00
2022-09-09T19:12:25.327Z,100.00
2022-09-09T19:18:06.813Z,100.00
2022-09-09T19:37:18.986Z,51.62
2022-09-09T19:40:41.796Z,50.94
2022-09-09T19:47:19.867Z,51.53
2022-09-09T19:50:23.554Z,53.66
2022-09-09T19:52:57.896Z,53.24
2022-09-09T19:55:41.829Z,54.31
2022-09-09T19:58:09.201Z,53.13
2022-09-09T20:00:53.093Z,54.13
2022-09-09T20:03:20.399Z,53.61
2022-09-09T20:06:02.840Z,54.14
2022-09-09T20:08:38.016Z,54.07
2022-09-09T20:11:25.509Z,54.38
2022-09-09T20:13:53.545Z,54.06
2022-09-09T20:16:24.426Z,55.00
2022-09-09T20:18:56.995Z,55.42
2022-09-09T20:21:48.089Z,54.72
2022-09-09T20:24:27.113Z,55.16
2022-09-09T20:26:57.497Z,55.29
2022-09-09T20:29:35.294Z,55.80
2022-09-09T20:32:19.267Z,55.82
2022-09-09T20:34:48.477Z,54.79
2022-09-09T20:37:24.025Z,55.64
2022-09-09T20:39:51.569Z,55.81
2022-09-09T20:42:34.069Z,56.46
2022-09-09T20:45:27.896Z,55.66
2022-09-09T20:48:02.150Z,56.83
2022-09-09T20:50:29.390Z,56.49
2022-09-09T20:53:13.949Z,56.42
2022-09-09T20:55:48.218Z,56.34
2022-09-09T21:27:56.807Z,56.07
2022-09-09T21:30:38.227Z,56.73
2022-09-09T21:33:19.063Z,57.16
2022-09-09T21:35:46.831Z,57.25
2022-09-09T21:38:25.996Z,58.10
2022-09-09T21:40:53.992Z,57.11
2022-09-09T21:43:23.320Z,57.23
2022-09-09T21:45:53.832Z,57.77
2022-09-09T21:48:21.046Z,58.05
2022-09-09T21:50:48.600Z,57.99
2022-09-09T21:53:20.387Z,58.07
2022-09-09T21:55:48.721Z,58.54
2022-09-09T21:58:16.889Z,58.67
2022-09-09T22:00:45.731Z,58.63
2022-09-09T22:03:16.133Z,59.11
2022-09-09T22:05:44.965Z,58.59
2022-09-09T22:08:14.393Z,59.43
2022-09-09T22:10:45.931Z,59.42
2022-09-09T22:13:14.831Z,59.25
2022-09-09T22:15:46.524Z,60.46
2022-09-09T22:18:16.055Z,59.90
2022-09-09T22:20:45.190Z,59.59
2022-09-09T22:23:13.060Z,59.74
2022-09-09T22:25:40.908Z,59.93
2022-09-09T22:28:09.464Z,60.52
2022-09-09T22:30:38.110Z,60.55
2022-09-09T22:33:06.119Z,60.22
2022-09-09T22:35:39.282Z,60.52
2022-09-09T22:38:06.254Z,60.70
2022-09-09T22:40:36.486Z,60.79
2022-09-09T22:43:04.248Z,60.80
2022-09-09T22:45:33.287Z,60.54
2022-09-09T22:48:01.328Z,60.75
2022-09-09T22:50:28.476Z,60.85
2022-09-09T22:52:57.456Z,61.17
2022-09-09T22:55:26.904Z,61.28
2022-09-09T22:57:54.330Z,61.13
2022-09-09T23:00:21.893Z,61.04
2022-09-09T23:02:50.829Z,61.10
2022-09-09T23:05:20.137Z,61.03
2022-09-09T23:07:48.787Z,60.93
2022-09-09T23:10:16.272Z,61.53
2022-09-09T23:12:43.890Z,61.29
2022-09-09T23:15:12.452Z,61.61
2022-09-09T23:17:41.160Z,61.51
2022-09-09T23:20:10.751Z,61.60
2022-09-09T23:22:39.294Z,61.65
2022-09-09T23:25:07.032Z,61.48
2022-09-09T23:27:34.903Z,61.45
2022-09-09T23:30:01.914Z,61.58
2022-09-09T23:32:31.929Z,61.31
2022-09-09T23:34:58.981Z,61.55
2022-09-09T23:37:27.060Z,61.85
2022-09-09T23:39:54.117Z,61.88
2022-09-09T23:42:21.193Z,61.88
2022-09-09T23:44:48.397Z,61.55
2022-09-09T23:47:15.306Z,61.70
2022-09-09T23:49:42.266Z,62.09
2022-09-09T23:52:09.698Z,62.08
2022-09-09T23:54:37.128Z,61.86
2022-09-09T23:57:04.760Z,62.03
2022-09-09T23:59:33.466Z,62.13
